Time;durP1;ratioP1;P1;durP2;ratioP2;P2;SDS_P1;SDS_P2;PMS_P1;PMS_P2;Temp;Humidity;BMP_temperature;BMP_pressure;BME280_temperature;BME280_humidity;BME280_pressure;Samples;Min_cycle;Max_cycle;Signal;HPM_P1;HPM_P2
2021/03/29 00:00:21;;;;;;;15.90;7.77;;;8.70;93.30;;;;;;4420219;32;20512;-66
2021/03/29 00:02:51;;;;;;;15.10;7.90;;;8.70;93.40;;;;;;4418980;32;20234;-69
2021/03/29 00:05:21;;;;;;;16.70;9.43;;;8.60;93.40;;;;;;4415220;32;20234;-66
2021/03/29 00:07:50;;;;;;;15.43;8.67;;;8.80;93.40;;;;;;4410026;32;20635;-67
2021/03/29 00:10:18;;;;;;;17.73;8.80;;;8.70;93.50;;;;;;4420697;32;20222;-66
2021/03/29 00:12:47;;;;;;;18.07;8.43;;;8.70;93.50;;;;;;4418374;32;20216;-66
2021/03/29 00:15:17;;;;;;;16.03;8.77;;;8.70;93.40;;;;;;4410469;32;20175;-68
2021/03/29 00:17:44;;;;;;;17.30;8.13;;;8.50;93.60;;;;;;4417867;32;20175;-68
2021/03/29 00:20:13;;;;;;;13.93;7.73;;;8.70;93.60;;;;;;4417874;32;20496;-67
2021/03/29 00:22:40;;;;;;;12.30;7.70;;;8.60;93.60;;;;;;4410000;32;20207;-67
2021/03/29 00:25:07;;;;;;;13.93;8.00;;;8.50;93.60;;;;;;4411290;32;20215;-66
2021/03/29 00:27:34;;;;;;;18.03;8.07;;;8.50;93.70;;;;;;4413457;32;20148;-67
2021/03/29 00:30:01;;;;;;;16.17;8.73;;;8.50;93.70;;;;;;4415923;32;20589;-67
2021/03/29 00:32:29;;;;;;;13.60;7.93;;;8.50;93.80;;;;;;4416195;32;20211;-69
2021/03/29 00:34:56;;;;;;;16.43;7.90;;;8.40;93.70;;;;;;4413625;32;20190;-67
2021/03/29 00:37:23;;;;;;;18.20;9.07;;;8.30;94.10;;;;;;4408951;32;20207;-67
2021/03/29 00:39:50;;;;;;;13.97;8.03;;;8.30;94.00;;;;;;4412318;32;20215;-66
2021/03/29 00:42:18;;;;;;;18.67;9.13;;;8.30;94.00;;;;;;4412180;32;20631;-66
2021/03/29 00:44:47;;;;;;;14.90;8.37;;;8.30;94.30;;;;;;4412699;32;20234;-68
2021/03/29 00:47:14;;;;;;;13.97;8.40;;;8.20;94.30;;;;;;4416450;32;20228;-68
2021/03/29 00:49:42;;;;;;;18.97;9.50;;;8.20;94.20;;;;;;4407045;32;20172;-67
2021/03/29 00:52:08;;;;;;;18.03;9.13;;;8.20;94.30;;;;;;4413519;32;20233;-66
2021/03/29 00:54:37;;;;;;;21.20;9.27;;;8.10;94.40;;;;;;4408199;32;20626;-66
2021/03/29 00:57:05;;;;;;;18.03;9.00;;;8.10;94.40;;;;;;4413258;32;20151;-66
2021/03/29 00:59:32;;;;;;;15.23;10.00;;;8.10;94.30;;;;;;4416184;32;20223;-68
2021/03/29 01:01:58;;;;;;;16.33;9.20;;;8.10;94.40;;;;;;4412482;32;20220;-68
2021/03/29 01:04:27;;;;;;;20.13;9.67;;;8.10;94.40;;;;;;4411290;32;20212;-66
2021/03/29 01:06:56;;;;;;;16.33;9.50;;;8.10;94.50;;;;;;4416000;32;20210;-69
2021/03/29 01:09:25;;;;;;;16.77;10.20;;;8.10;94.60;;;;;;4407591;32;20168;-69
2021/03/29 01:11:54;;;;;;;15.57;10.27;;;8.10;94.50;;;;;;4408504;32;20250;-68
2021/03/29 01:14:26;;;;;;;17.20;10.00;;;8.00;94.50;;;;;;4407886;32;20170;-70
2021/03/29 01:16:57;;;;;;;21.77;10.93;;;8.00;94.50;;;;;;4414703;32;20190;-68
2021/03/29 01:19:41;;;;;;;22.40;11.43;;;8.00;94.60;;;;;;4411722;32;20511;-66
2021/03/29 01:22:09;;;;;;;20.10;10.57;;;7.90;94.60;;;;;;4413514;32;20219;-68
2021/03/29 01:24:49;;;;;;;23.53;12.27;;;8.00;94.60;;;;;;4412627;32;20177;-66
2021/03/29 01:27:19;;;;;;;19.53;12.03;;;7.90;94.80;;;;;;4412880;32;20177;-66
2021/03/29 01:29:50;;;;;;;19.40;11.87;;;7.90;94.80;;;;;;4416630;32;20203;-65
2021/03/29 01:32:18;;;;;;;19.43;11.47;;;7.90;94.80;;;;;;4408769;32;20694;-66
2021/03/29 01:34:45;;;;;;;16.37;11.27;;;7.80;94.80;;;;;;4413307;32;20147;-65
2021/03/29 01:37:13;;;;;;;20.63;11.97;;;7.80;94.70;;;;;;4420370;32;20617;-65
2021/03/29 01:39:41;;;;;;;18.93;11.87;;;7.70;94.80;;;;;;4412486;32;20211;-68
2021/03/29 01:42:09;;;;;;;22.67;12.30;;;7.70;94.90;;;;;;4412404;32;20216;-65
2021/03/29 01:44:37;;;;;;;20.37;12.90;;;7.70;95.00;;;;;;4417202;32;20249;-68
2021/03/29 01:47:04;;;;;;;21.53;11.53;;;7.70;95.10;;;;;;4410146;32;20235;-67
2021/03/29 01:49:31;;;;;;;22.33;11.43;;;7.70;95.10;;;;;;4412085;32;20215;-68
2021/03/29 01:51:59;;;;;;;18.53;12.03;;;7.60;95.20;;;;;;4414316;32;20152;-68
2021/03/29 01:54:26;;;;;;;18.80;11.60;;;7.60;95.20;;;;;;4409141;32;20647;-67
2021/03/29 01:56:52;;;;;;;19.80;12.70;;;7.60;95.30;;;;;;4409029;32;20514;-66
2021/03/29 01:59:19;;;;;;;16.83;11.97;;;7.50;95.30;;;;;;4413108;32;20160;-66
2021/03/29 02:01:47;;;;;;;20.30;11.83;;;7.50;95.40;;;;;;4411162;32;20230;-66
2021/03/29 02:04:13;;;;;;;26.20;12.97;;;7.50;95.50;;;;;;4412231;32;20354;-66
2021/03/29 02:06:40;;;;;;;19.80;12.20;;;7.50;95.40;;;;;;4412172;32;20185;-66
2021/03/29 02:09:09;;;;;;;18.60;12.27;;;7.40;95.50;;;;;;4409249;32;20214;-66
2021/03/29 02:11:35;;;;;;;23.73;12.60;;;7.30;95.60;;;;;;4414751;32;20522;-67
2021/03/29 02:14:05;;;;;;;20.10;11.70;;;7.40;95.70;;;;;;4418955;32;20194;-66
2021/03/29 02:16:33;;;;;;;17.90;11.73;;;7.40;95.70;;;;;;4422140;32;20156;-66
2021/03/29 02:19:04;;;;;;;15.67;11.57;;;7.40;95.80;;;;;;4415104;32;20210;-66
2021/03/29 02:21:34;;;;;;;22.63;12.53;;;7.30;95.80;;;;;;4409769;32;20195;-66
2021/03/29 02:24:03;;;;;;;21.67;12.73;;;7.30;95.70;;;;;;4414593;32;20227;-67
2021/03/29 02:26:37;;;;;;;20.97;13.60;;;7.30;95.70;;;;;;4407408;32;20176;-66
2021/03/29 02:29:05;;;;;;;21.47;12.33;;;7.40;95.60;;;;;;4410704;32;20736;-66
2021/03/29 02:31:31;;;;;;;22.97;12.50;;;7.40;95.60;;;;;;4410505;32;20203;-68
2021/03/29 02:34:00;;;;;;;22.80;12.27;;;7.30;95.60;;;;;;4414075;32;20210;-69
2021/03/29 02:36:27;;;;;;;17.53;12.23;;;7.30;95.70;;;;;;4420061;32;20167;-67
2021/03/29 02:38:54;;;;;;;18.13;11.57;;;7.40;95.60;;;;;;4410210;32;20684;-66
2021/03/29 02:41:23;;;;;;;24.93;12.20;;;7.40;95.60;;;;;;4414289;32;20195;-66
2021/03/29 02:43:52;;;;;;;17.80;11.30;;;7.40;95.40;;;;;;4415640;32;20226;-67
2021/03/29 02:46:23;;;;;;;19.57;11.50;;;7.40;95.30;;;;;;4416565;32;20205;-66
2021/03/29 02:48:50;;;;;;;21.73;12.13;;;7.50;95.50;;;;;;4406531;32;20178;-65
2021/03/29 02:51:18;;;;;;;22.37;12.10;;;7.40;95.40;;;;;;4417569;32;20151;-67
2021/03/29 02:53:48;;;;;;;21.17;11.17;;;7.50;95.30;;;;;;4420049;32;20286;-67
2021/03/29 02:56:17;;;;;;;24.60;11.00;;;7.50;95.50;;;;;;4413237;32;20630;-66
2021/03/29 02:58:48;;;;;;;18.83;11.20;;;7.60;95.30;;;;;;4417035;32;20570;-66
2021/03/29 03:01:16;;;;;;;22.77;10.70;;;7.50;95.30;;;;;;4409557;32;20229;-65
2021/03/29 03:03:45;;;;;;;16.60;9.47;;;7.60;95.30;;;;;;4416608;32;20166;-65
2021/03/29 03:06:12;;;;;;;18.07;9.57;;;7.60;95.20;;;;;;4417878;32;20164;-65
2021/03/29 03:08:40;;;;;;;14.70;8.93;;;7.60;95.20;;;;;;4419352;32;20159;-68
2021/03/29 03:11:10;;;;;;;17.43;9.80;;;7.60;95.10;;;;;;4414444;32;20170;-69
2021/03/29 03:13:37;;;;;;;17.53;9.63;;;7.70;95.10;;;;;;4417522;32;20148;-70
2021/03/29 03:16:04;;;;;;;15.60;8.57;;;7.70;94.90;;;;;;4408251;32;20202;-67
2021/03/29 03:18:31;;;;;;;18.20;8.60;;;7.70;94.90;;;;;;4413571;32;20210;-68
2021/03/29 03:20:57;;;;;;;13.70;8.77;;;7.70;94.90;;;;;;4417373;32;20173;-66
2021/03/29 03:23:24;;;;;;;18.13;8.70;;;7.70;94.80;;;;;;4408504;32;20456;-69
2021/03/29 03:25:53;;;;;;;17.77;9.40;;;7.60;94.90;;;;;;4414290;32;20214;-65
2021/03/29 03:28:21;;;;;;;15.90;8.50;;;7.60;95.00;;;;;;4407827;32;20231;-68
2021/03/29 03:30:49;;;;;;;18.83;8.83;;;7.70;95.00;;;;;;4414942;32;20241;-67
2021/03/29 03:33:18;;;;;;;16.87;9.10;;;7.60;95.00;;;;;;4419450;32;20261;-67
2021/03/29 03:35:45;;;;;;;19.13;8.23;;;7.60;95.00;;;;;;4410942;32;20191;-65
2021/03/29 03:38:14;;;;;;;22.83;9.10;;;7.70;95.00;;;;;;4413361;32;20254;-65
2021/03/29 03:40:42;;;;;;;21.30;8.50;;;7.70;95.00;;;;;;4418090;32;20262;-65
2021/03/29 03:43:12;;;;;;;21.53;8.27;;;7.60;95.10;;;;;;4420132;32;20223;-64
2021/03/29 03:45:43;;;;;;;16.33;7.20;;;7.70;94.90;;;;;;4410973;32;20156;-67
2021/03/29 03:48:13;;;;;;;16.23;7.13;;;7.80;95.00;;;;;;4412302;32;20156;-66
2021/03/29 03:50:45;;;;;;;15.90;7.23;;;7.80;94.90;;;;;;4407035;32;20554;-65
2021/03/29 03:53:13;;;;;;;15.73;7.23;;;7.80;94.80;;;;;;4412510;32;20207;-66
2021/03/29 03:55:42;;;;;;;17.93;7.63;;;7.80;94.90;;;;;;4413658;32;20250;-65
2021/03/29 03:58:12;;;;;;;15.47;7.07;;;7.70;95.20;;;;;;4410999;32;20545;-66
2021/03/29 04:00:38;;;;;;;16.77;7.57;;;7.70;95.00;;;;;;4417503;32;20197;-66
2021/03/29 04:03:06;;;;;;;21.77;8.20;;;7.60;94.90;;;;;;4409313;32;20175;-65
2021/03/29 04:05:32;;;;;;;15.73;8.33;;;7.70;95.00;;;;;;4418890;32;20190;-66
2021/03/29 04:08:01;;;;;;;15.33;7.70;;;7.70;94.80;;;;;;4417106;32;20199;-65
2021/03/29 04:10:38;;;;;;;12.83;6.47;;;7.70;94.80;;;;;;4411945;32;20179;-66
2021/03/29 04:13:08;;;;;;;16.23;7.23;;;7.70;94.80;;;;;;4407782;32;20474;-66
2021/03/29 04:15:35;;;;;;;16.30;7.47;;;7.90;94.80;;;;;;4414287;32;20612;-66
2021/03/29 04:18:01;;;;;;;16.83;7.37;;;7.70;94.90;;;;;;4407620;32;20175;-67
2021/03/29 04:20:28;;;;;;;18.77;6.70;;;7.70;94.90;;;;;;4416888;32;20227;-66
2021/03/29 04:22:54;;;;;;;13.87;6.20;;;7.70;95.00;;;;;;4414920;32;20646;-66
2021/03/29 04:25:21;;;;;;;17.00;6.60;;;7.70;95.00;;;;;;4412113;32;20250;-66
2021/03/29 04:27:47;;;;;;;13.70;6.50;;;7.70;94.80;;;;;;4408479;32;20168;-67
2021/03/29 04:30:14;;;;;;;13.30;6.90;;;7.60;94.90;;;;;;4412757;32;20211;-66
2021/03/29 04:32:45;;;;;;;14.07;7.40;;;7.60;95.00;;;;;;4417133;32;20241;-67
2021/03/29 04:35:12;;;;;;;13.70;6.50;;;7.60;95.20;;;;;;4412911;32;20639;-65
2021/03/29 04:37:39;;;;;;;18.13;6.63;;;7.60;95.10;;;;;;4415147;32;20191;-65
2021/03/29 04:40:06;;;;;;;15.57;6.37;;;7.50;95.00;;;;;;4405220;32;20571;-65
2021/03/29 04:42:33;;;;;;;14.60;6.67;;;7.50;95.30;;;;;;4412855;32;20215;-65
2021/03/29 04:44:59;;;;;;;13.63;6.83;;;7.50;95.30;;;;;;4412474;32;20274;-67
2021/03/29 04:47:25;;;;;;;15.50;7.23;;;7.50;95.40;;;;;;4416548;32;20214;-65
2021/03/29 04:49:52;;;;;;;16.30;6.80;;;7.50;95.30;;;;;;4412853;32;20174;-65
2021/03/29 04:52:19;;;;;;;20.43;7.23;;;7.50;95.20;;;;;;4413300;32;20160;-65
2021/03/29 04:54:46;;;;;;;17.17;6.50;;;7.50;95.40;;;;;;4408212;32;20207;-66
2021/03/29 04:57:12;;;;;;;14.87;7.67;;;7.50;95.60;;;;;;4415241;32;20219;-66
2021/03/29 04:59:40;;;;;;;11.43;6.40;;;7.50;95.40;;;;;;4418046;32;20219;-65
2021/03/29 05:02:06;;;;;;;18.43;6.37;;;7.60;95.50;;;;;;4416155;32;20151;-66
2021/03/29 05:04:33;;;;;;;18.27;6.87;;;7.50;95.60;;;;;;4408623;32;20658;-65
2021/03/29 05:07:00;;;;;;;24.17;7.43;;;7.50;95.50;;;;;;4412640;32;20601;-63
2021/03/29 05:09:26;;;;;;;14.10;6.60;;;7.60;95.40;;;;;;4410244;32;20159;-69
2021/03/29 05:11:56;;;;;;;10.23;5.97;;;7.60;95.30;;;;;;4407107;32;20237;-65
2021/03/29 05:14:22;;;;;;;14.13;5.23;;;7.70;95.20;;;;;;4407369;32;20144;-66
2021/03/29 05:16:48;;;;;;;8.43;5.77;;;7.80;95.10;;;;;;4410047;32;20508;-65
2021/03/29 05:19:16;;;;;;;13.60;6.10;;;7.70;95.20;;;;;;4417349;32;20156;-68
2021/03/29 05:21:42;;;;;;;14.20;6.10;;;7.70;95.30;;;;;;4417515;32;20519;-67
2021/03/29 05:24:10;;;;;;;14.40;6.30;;;7.70;95.20;;;;;;4418756;32;20174;-69
2021/03/29 05:26:36;;;;;;;16.20;6.23;;;7.80;95.10;;;;;;4416595;32;20690;-66
2021/03/29 05:29:04;;;;;;;11.47;5.87;;;7.80;95.10;;;;;;4412417;32;20282;-66
2021/03/29 05:31:35;;;;;;;20.70;6.47;;;7.80;95.10;;;;;;4408721;32;20563;-65
2021/03/29 05:34:02;;;;;;;13.37;5.80;;;7.80;95.20;;;;;;4410713;32;20151;-66
2021/03/29 05:36:28;;;;;;;11.90;5.70;;;7.90;95.10;;;;;;4413008;32;20171;-66
2021/03/29 05:38:54;;;;;;;15.27;5.73;;;7.90;95.00;;;;;;4414674;32;20226;-67
2021/03/29 05:41:30;;;;;;;16.73;5.27;;;7.90;95.00;;;;;;4414307;32;20203;-67
2021/03/29 05:43:57;;;;;;;15.70;6.17;;;8.00;94.90;;;;;;4411745;32;20211;-65
2021/03/29 05:46:23;;;;;;;12.77;4.97;;;8.00;94.80;;;;;;4408888;32;20307;-66
2021/03/29 05:48:53;;;;;;;11.33;4.83;;;8.10;94.70;;;;;;4413365;32;20227;-66
2021/03/29 05:51:19;;;;;;;13.23;5.50;;;8.10;94.70;;;;;;4409880;32;20186;-65
2021/03/29 05:53:45;;;;;;;13.40;5.40;;;8.20;94.60;;;;;;4413928;32;20176;-66
2021/03/29 05:56:14;;;;;;;10.43;5.37;;;8.10;94.50;;;;;;4414026;32;20226;-67
2021/03/29 05:58:43;;;;;;;11.73;5.80;;;8.20;94.60;;;;;;4410594;32;20230;-67
2021/03/29 06:01:10;;;;;;;16.37;6.83;;;8.20;94.60;;;;;;4413966;32;20173;-66
2021/03/29 06:03:38;;;;;;;15.90;5.47;;;8.20;94.70;;;;;;4414127;32;20231;-67
2021/03/29 06:06:18;;;;;;;9.57;4.93;;;8.30;94.60;;;;;;4413269;32;20287;-65
2021/03/29 06:08:45;;;;;;;10.07;5.33;;;8.30;94.60;;;;;;4413711;32;20219;-66
2021/03/29 06:11:22;;;;;;;13.27;5.83;;;8.40;94.40;;;;;;4412079;32;20167;-65
2021/03/29 06:14:10;;;;;;;14.20;5.70;;;8.50;94.30;;;;;;4411197;32;20216;-65
2021/03/29 06:16:51;;;;;;;17.90;5.70;;;8.60;94.20;;;;;;4408331;32;20236;-65
2021/03/29 06:19:43;;;;;;;11.03;5.00;;;8.80;94.00;;;;;;4409221;32;20171;-66
2021/03/29 06:22:14;;;;;;;15.70;5.97;;;8.90;93.70;;;;;;4415332;32;20617;-66
2021/03/29 06:25:05;;;;;;;10.20;4.90;;;9.00;93.50;;;;;;4408050;32;20163;-68
2021/03/29 06:27:32;;;;;;;13.93;5.43;;;9.10;93.40;;;;;;4411163;32;20205;-68
2021/03/29 06:30:20;;;;;;;16.60;5.33;;;9.10;93.20;;;;;;4408755;32;20630;-65
2021/03/29 06:33:01;;;;;;;9.17;4.33;;;9.20;93.10;;;;;;4413091;32;20186;-65
2021/03/29 06:35:30;;;;;;;11.20;5.20;;;9.30;93.10;;;;;;4413026;32;20227;-66
2021/03/29 06:38:11;;;;;;;18.13;5.23;;;9.30;93.30;;;;;;4413660;32;20524;-66
2021/03/29 06:40:40;;;;;;;18.60;6.00;;;9.30;92.90;;;;;;4408317;32;20528;-66
2021/03/29 06:43:20;;;;;;;13.40;5.13;;;9.30;92.90;;;;;;4411596;32;20179;-66
2021/03/29 06:45:48;;;;;;;13.53;5.33;;;9.30;92.70;;;;;;4412440;32;20161;-69
2021/03/29 06:48:19;;;;;;;11.47;5.37;;;9.30;92.80;;;;;;4413987;32;20195;-65
2021/03/29 06:50:45;;;;;;;15.43;5.07;;;9.30;93.00;;;;;;4413634;32;20175;-66
2021/03/29 06:53:24;;;;;;;12.00;5.10;;;9.20;93.00;;;;;;4403490;32;20583;-67
2021/03/29 06:55:51;;;;;;;13.50;5.17;;;9.40;92.90;;;;;;4412757;32;20593;-67
2021/03/29 06:58:25;;;;;;;14.33;5.50;;;9.40;92.90;;;;;;4413963;32;20483;-67
2021/03/29 07:00:56;;;;;;;16.67;5.20;;;9.50;93.00;;;;;;4409818;32;20665;-67
2021/03/29 07:03:23;;;;;;;13.70;4.97;;;9.60;92.90;;;;;;4410657;32;20241;-67
2021/03/29 07:05:49;;;;;;;16.70;5.30;;;9.70;92.80;;;;;;4408344;32;20153;-69
2021/03/29 07:08:23;;;;;;;13.93;5.00;;;9.80;92.60;;;;;;4412289;32;20194;-67
2021/03/29 07:10:53;;;;;;;11.83;4.83;;;9.90;92.40;;;;;;4412720;32;20612;-70
2021/03/29 07:13:20;;;;;;;11.40;4.63;;;10.10;92.40;;;;;;4414782;32;20176;-67
2021/03/29 07:15:47;;;;;;;11.63;4.80;;;10.10;92.20;;;;;;4412409;32;20249;-66
2021/03/29 07:18:16;;;;;;;14.63;5.23;;;10.20;92.00;;;;;;4411216;32;20943;-67
2021/03/29 07:20:42;;;;;;;13.93;5.73;;;10.30;92.00;;;;;;4414805;32;20191;-67
2021/03/29 07:23:09;;;;;;;13.67;5.00;;;10.40;91.90;;;;;;4409640;32;20232;-68
2021/03/29 07:25:36;;;;;;;16.80;5.50;;;10.60;91.80;;;;;;4404585;32;20154;-65
2021/03/29 07:28:09;;;;;;;7.53;4.47;;;10.60;91.50;;;;;;4409684;32;20582;-67
2021/03/29 07:30:47;;;;;;;13.50;5.23;;;10.70;91.50;;;;;;4412397;32;20246;-68
2021/03/29 07:33:16;;;;;;;14.57;5.50;;;10.80;91.40;;;;;;4409611;32;20151;-67
2021/03/29 07:35:44;;;;;;;15.77;4.97;;;10.90;91.20;;;;;;4412140;32;20589;-68
2021/03/29 07:38:11;;;;;;;15.10;5.80;;;11.00;91.00;;;;;;4409992;32;20232;-67
2021/03/29 07:40:40;;;;;;;11.67;4.57;;;11.10;90.70;;;;;;4410086;32;20166;-69
2021/03/29 07:43:12;;;;;;;13.60;5.43;;;11.10;90.80;;;;;;4406499;32;20174;-68
2021/03/29 07:45:46;;;;;;;14.27;5.93;;;11.20;90.50;;;;;;4411005;32;20155;-70
2021/03/29 07:48:38;;;;;;;12.47;5.37;;;11.30;90.50;;;;;;4409616;32;20652;-67
2021/03/29 07:51:09;;;;;;;13.13;4.70;;;11.50;90.30;;;;;;4409444;32;20237;-70
2021/03/29 07:53:42;;;;;;;12.03;4.90;;;11.70;89.60;;;;;;4410306;32;20166;-70
2021/03/29 07:56:09;;;;;;;15.10;5.00;;;11.80;89.40;;;;;;4409544;32;20617;-66
2021/03/29 07:58:46;;;;;;;9.17;4.20;;;12.00;88.50;;;;;;4410671;32;20186;-67
2021/03/29 08:01:14;;;;;;;14.60;4.67;;;12.20;88.30;;;;;;4408300;32;20159;-68
2021/03/29 08:03:54;;;;;;;14.03;5.27;;;12.40;87.20;;;;;;4412005;32;20256;-68
2021/03/29 08:06:51;;;;;;;11.57;4.90;;;12.50;86.70;;;;;;4411046;32;20231;-67
2021/03/29 08:09:22;;;;;;;12.00;4.80;;;12.70;86.00;;;;;;4409558;32;20151;-66
2021/03/29 08:12:11;;;;;;;15.03;4.97;;;12.80;84.90;;;;;;4412413;32;20544;-68
2021/03/29 08:14:41;;;;;;;13.13;4.77;;;12.70;85.40;;;;;;4411529;32;20174;-67
2021/03/29 08:17:45;;;;;;;15.87;4.73;;;12.90;85.40;;;;;;4411030;32;20147;-65
2021/03/29 08:20:26;;;;;;;12.70;5.20;;;13.20;84.30;;;;;;4411533;32;20223;-67
2021/03/29 08:23:37;;;;;;;11.97;4.77;;;13.30;82.90;;;;;;4409856;32;20189;-67
2021/03/29 08:26:36;;;;;;;11.27;4.83;;;13.70;82.10;;;;;;4349065;32;20156;-67
2021/03/29 08:29:30;;;;;;;14.13;4.67;;;14.00;80.50;;;;;;4344714;33;20232;-68
2021/03/29 08:32:10;;;;;;;11.67;4.60;;;16.00;75.40;;;;;;4351988;33;20612;-68
2021/03/29 08:34:52;;;;;;;12.90;4.23;;;19.90;65.00;;;;;;4351470;32;20169;-67
2021/03/29 08:37:27;;;;;;;15.43;3.93;;;23.10;52.80;;;;;;4351706;33;20190;-68
2021/03/29 08:39:56;;;;;;;10.20;3.80;;;26.30;46.80;;;;;;4351620;33;20208;-68
2021/03/29 08:42:25;;;;;;;13.43;3.83;;;28.40;42.50;;;;;;4349395;33;20219;-69
2021/03/29 08:44:53;;;;;;;16.77;3.70;;;29.50;38.00;;;;;;4349238;33;20201;-68
2021/03/29 08:47:22;;;;;;;11.93;4.10;;;29.30;37.80;;;;;;4351827;32;20635;-68
2021/03/29 08:49:51;;;;;;;11.90;4.00;;;30.30;37.20;;;;;;4351089;33;20307;-67
2021/03/29 08:52:25;;;;;;;13.40;4.03;;;30.60;36.60;;;;;;4348268;32;20219;-68
2021/03/29 08:54:54;;;;;;;8.27;3.60;;;27.00;39.40;;;;;;4350229;32;20212;-67
2021/03/29 08:57:26;;;;;;;12.90;4.70;;;22.30;48.40;;;;;;4346271;33;20218;-69
2021/03/29 08:59:59;;;;;;;11.10;4.23;;;19.20;58.60;;;;;;4351689;33;20217;-67
2021/03/29 09:02:26;;;;;;;11.90;4.30;;;17.60;65.40;;;;;;4376044;32;20206;-67
2021/03/29 09:04:54;;;;;;;14.43;4.17;;;16.80;67.90;;;;;;4411049;32;20201;-69
2021/03/29 09:07:28;;;;;;;10.20;4.20;;;16.20;70.50;;;;;;4406391;32;20191;-67
2021/03/29 09:09:56;;;;;;;12.50;4.63;;;15.70;72.40;;;;;;4404480;32;20280;-68
2021/03/29 09:12:24;;;;;;;17.03;4.70;;;15.70;73.40;;;;;;4403668;32;20241;-68
2021/03/29 09:14:52;;;;;;;10.63;4.60;;;15.20;74.00;;;;;;4406371;32;20199;-67
2021/03/29 09:17:27;;;;;;;11.37;4.53;;;15.00;75.20;;;;;;4409253;32;20159;-69
2021/03/29 09:19:54;;;;;;;11.13;4.60;;;14.70;76.20;;;;;;4408718;32;20223;-66
2021/03/29 09:22:34;;;;;;;10.83;4.60;;;14.50;77.70;;;;;;4408149;32;20180;-66
2021/03/29 09:25:02;;;;;;;10.47;4.97;;;14.40;78.40;;;;;;4409854;32;20159;-68
2021/03/29 09:27:42;;;;;;;17.30;5.53;;;14.40;78.80;;;;;;4408460;32;20156;-69
2021/03/29 09:30:12;;;;;;;11.23;4.67;;;14.50;78.40;;;;;;4407038;32;20566;-68
2021/03/29 09:32:43;;;;;;;12.93;4.77;;;14.60;78.90;;;;;;4408106;32;20175;-68
2021/03/29 09:35:13;;;;;;;15.77;5.53;;;14.50;77.90;;;;;;4405885;32;20147;-68
2021/03/29 09:37:48;;;;;;;15.60;4.33;;;14.50;77.80;;;;;;4407171;32;20171;-67
2021/03/29 09:40:18;;;;;;;13.53;5.13;;;14.40;77.70;;;;;;4409828;32;20151;-66
2021/03/29 09:42:47;;;;;;;12.87;4.50;;;14.40;78.00;;;;;;4404120;32;20218;-67
2021/03/29 09:45:15;;;;;;;18.57;5.33;;;14.60;78.00;;;;;;4411437;32;20483;-67
2021/03/29 09:47:42;;;;;;;14.43;4.73;;;14.50;78.00;;;;;;4405584;32;20228;-69
2021/03/29 09:50:10;;;;;;;15.37;5.63;;;14.40;78.60;;;;;;4410462;32;20156;-67
2021/03/29 09:52:40;;;;;;;11.60;4.97;;;14.40;78.80;;;;;;4411011;32;20567;-68
2021/03/29 09:55:13;;;;;;;11.63;5.33;;;14.50;78.60;;;;;;4411180;32;20605;-69
2021/03/29 09:57:46;;;;;;;15.90;6.07;;;14.60;78.40;;;;;;4409088;32;20208;-67
2021/03/29 10:00:17;;;;;;;16.80;5.33;;;14.50;78.40;;;;;;4409698;32;20174;-69
2021/03/29 10:02:43;;;;;;;19.17;5.77;;;14.50;79.20;;;;;;4407675;32;20160;-68
2021/03/29 10:05:11;;;;;;;13.00;5.17;;;14.70;78.90;;;;;;4410839;32;20251;-66
2021/03/29 10:07:49;;;;;;;14.17;5.07;;;14.80;78.00;;;;;;4411718;32;20891;-68
2021/03/29 10:10:24;;;;;;;16.40;5.90;;;14.70;77.80;;;;;;4409185;32;20287;-66
2021/03/29 10:12:51;;;;;;;17.57;5.63;;;14.60;77.80;;;;;;4407941;32;20153;-69
2021/03/29 10:15:17;;;;;;;14.37;5.30;;;14.70;77.30;;;;;;4414553;32;20189;-69
2021/03/29 10:17:44;;;;;;;13.70;5.80;;;14.70;77.70;;;;;;4408052;32;20155;-67
2021/03/29 10:20:13;;;;;;;12.57;5.67;;;14.80;77.30;;;;;;4409690;32;20581;-67
2021/03/29 10:22:39;;;;;;;16.93;5.80;;;14.80;77.60;;;;;;4410471;32;20221;-69
2021/03/29 10:25:12;;;;;;;14.13;5.73;;;14.80;77.90;;;;;;4411926;32;20219;-68
2021/03/29 10:27:45;;;;;;;16.50;5.77;;;14.90;77.10;;;;;;4410407;32;20202;-68
2021/03/29 10:30:22;;;;;;;14.53;5.27;;;15.10;77.10;;;;;;4409507;32;20212;-68
2021/03/29 10:32:48;;;;;;;12.53;4.77;;;15.10;77.20;;;;;;4407192;32;20516;-69
2021/03/29 10:35:15;;;;;;;9.47;4.17;;;15.20;76.10;;;;;;4409266;32;20292;-70
2021/03/29 10:37:43;;;;;;;13.87;5.50;;;15.20;76.40;;;;;;4409263;32;20213;-69
2021/03/29 10:40:11;;;;;;;15.50;5.30;;;15.20;75.50;;;;;;4412406;32;20223;-68
2021/03/29 10:42:39;;;;;;;14.93;5.20;;;15.20;75.20;;;;;;4410363;32;20171;-68
2021/03/29 10:45:09;;;;;;;15.03;5.83;;;15.20;75.40;;;;;;4408844;32;20182;-69
2021/03/29 10:47:36;;;;;;;13.20;5.60;;;15.20;75.70;;;;;;4409292;32;20263;-68
2021/03/29 10:50:03;;;;;;;13.70;4.70;;;15.30;75.80;;;;;;4411212;32;20171;-67
2021/03/29 10:52:33;;;;;;;13.83;5.47;;;15.30;76.00;;;;;;4410446;32;20295;-67
2021/03/29 10:54:59;;;;;;;11.67;4.83;;;15.30;75.60;;;;;;4409720;32;20237;-67
2021/03/29 10:57:26;;;;;;;11.33;5.37;;;15.30;73.50;;;;;;4410306;32;20179;-68
2021/03/29 10:59:53;;;;;;;17.33;5.43;;;15.20;74.20;;;;;;4409835;32;20163;-68
2021/03/29 11:02:22;;;;;;;11.23;5.20;;;15.20;74.00;;;;;;4412611;32;20327;-69
2021/03/29 11:04:49;;;;;;;15.90;5.23;;;15.20;73.80;;;;;;4412194;32;20254;-68
2021/03/29 11:07:15;;;;;;;13.70;5.87;;;15.20;74.60;;;;;;4409841;32;20172;-68
2021/03/29 11:09:42;;;;;;;14.83;6.07;;;15.30;74.00;;;;;;4406164;32;20240;-69
2021/03/29 11:12:09;;;;;;;9.77;6.07;;;15.50;74.30;;;;;;4407770;32;20215;-69
2021/03/29 11:14:36;;;;;;;12.60;5.73;;;15.60;74.40;;;;;;4410180;32;20222;-68
2021/03/29 11:17:06;;;;;;;15.33;5.33;;;15.70;74.00;;;;;;4409736;32;20152;-70
2021/03/29 11:19:34;;;;;;;9.63;4.73;;;15.90;73.30;;;;;;4410209;32;20211;-70
2021/03/29 11:22:00;;;;;;;12.87;5.90;;;15.90;71.80;;;;;;4410949;32;20182;-68
2021/03/29 11:24:27;;;;;;;11.27;5.43;;;15.90;71.10;;;;;;4410862;32;20256;-69
2021/03/29 11:26:54;;;;;;;9.87;5.00;;;15.90;70.40;;;;;;4409769;32;20174;-69
2021/03/29 11:29:23;;;;;;;11.83;5.47;;;16.00;69.70;;;;;;4395748;32;20479;-69
2021/03/29 11:31:51;;;;;;;14.87;6.10;;;15.90;70.20;;;;;;4407783;32;20607;-69
2021/03/29 11:34:20;;;;;;;14.03;5.43;;;15.90;70.10;;;;;;4407758;32;20551;-68
2021/03/29 11:36:47;;;;;;;9.77;5.50;;;16.00;70.50;;;;;;4408922;32;20528;-69
2021/03/29 11:39:14;;;;;;;17.40;6.73;;;16.00;70.10;;;;;;4410584;32;20227;-70
2021/03/29 11:41:40;;;;;;;12.10;5.80;;;16.00;69.10;;;;;;4411439;32;20148;-69
2021/03/29 11:44:08;;;;;;;12.03;6.03;;;16.00;69.80;;;;;;4409153;32;20548;-69
2021/03/29 11:46:34;;;;;;;9.53;5.00;;;15.90;69.90;;;;;;4413168;32;20170;-67
2021/03/29 11:49:01;;;;;;;11.30;5.13;;;16.00;70.10;;;;;;4409466;32;20214;-67
2021/03/29 11:51:28;;;;;;;13.00;5.63;;;15.90;70.30;;;;;;4411619;32;20155;-68
2021/03/29 11:53:55;;;;;;;10.70;5.10;;;16.00;69.60;;;;;;4408181;32;20203;-69
2021/03/29 11:56:22;;;;;;;12.83;6.00;;;16.10;68.20;;;;;;4412082;32;20212;-68
2021/03/29 11:58:50;;;;;;;17.87;6.07;;;16.10;69.40;;;;;;4412840;32;20267;-68
2021/03/29 12:01:39;;;;;;;12.00;5.50;;;16.10;68.60;;;;;;4414733;32;20658;-68
2021/03/29 12:04:09;;;;;;;13.77;5.13;;;16.10;68.10;;;;;;4410346;32;20168;-69
2021/03/29 12:06:41;;;;;;;8.10;4.67;;;16.10;68.60;;;;;;4411555;32;20151;-70
2021/03/29 12:09:16;;;;;;;9.67;4.90;;;16.10;68.90;;;;;;4411658;32;20617;-68
2021/03/29 12:14:31;;;;;;;11.63;5.37;;;16.40;67.80;;;;;;4409236;32;20264;-68
2021/03/29 12:16:57;;;;;;;10.43;4.73;;;16.40;68.00;;;;;;4407256;32;20575;-68
2021/03/29 12:19:25;;;;;;;9.60;4.77;;;16.40;67.50;;;;;;4409134;32;20172;-68
2021/03/29 12:21:58;;;;;;;11.37;5.43;;;16.40;68.00;;;;;;4414256;32;20228;-69
2021/03/29 12:24:28;;;;;;;14.17;6.07;;;16.50;67.10;;;;;;4406747;32;20174;-68
2021/03/29 12:26:54;;;;;;;11.40;5.57;;;16.60;66.80;;;;;;4404251;32;20205;-69
2021/03/29 12:29:34;;;;;;;10.83;4.87;;;16.70;66.30;;;;;;4406230;32;20156;-68
2021/03/29 12:32:02;;;;;;;15.17;5.83;;;16.70;65.70;;;;;;4412406;32;20196;-67
2021/03/29 12:34:30;;;;;;;12.93;5.30;;;16.70;65.50;;;;;;4410177;32;20156;-67
2021/03/29 12:36:57;;;;;;;10.90;4.93;;;16.60;64.90;;;;;;4405042;32;20620;-69
2021/03/29 12:39:30;;;;;;;13.63;5.70;;;16.70;65.60;;;;;;4409507;32;20155;-68
2021/03/29 12:42:01;;;;;;;10.17;5.23;;;16.70;64.50;;;;;;4410996;32;20525;-68
2021/03/29 12:44:32;;;;;;;13.03;5.13;;;16.70;65.20;;;;;;4416643;32;20487;-68
2021/03/29 12:47:01;;;;;;;9.37;5.00;;;16.80;64.90;;;;;;4418047;32;20152;-70
2021/03/29 12:49:28;;;;;;;14.40;5.83;;;16.80;63.80;;;;;;4406086;32;20167;-69
2021/03/29 12:51:57;;;;;;;9.40;4.83;;;16.80;63.30;;;;;;4412098;32;20168;-69
2021/03/29 12:54:26;;;;;;;10.90;4.87;;;16.80;64.10;;;;;;4412918;32;20172;-69
2021/03/29 12:56:53;;;;;;;15.30;4.97;;;16.90;63.30;;;;;;4409271;32;20204;-69